Home > Products > Valid Products > TAF

000
FTUS41 KBOX 310535
TAFBOS
TAF
KBOS 310535Z 3106/0112 31020G37KT 4SM -SN OVC040
     FM311000 31021G36KT P6SM OVC040
     FM311600 31020G39KT P6SM SCT250
     FM010000 31016G30KT P6SM SKC
     FM010500 29013G21KT P6SM SKC
     FM011100 26010KT P6SM SCT200=



000
FTUS41 KBOX 310535
TAFPVD
TAF
KPVD 310535Z 3106/0106 32016G28KT P6SM BKN050
     FM311400 32017G38KT P6SM SCT250
     FM312200 31015G29KT P6SM SKC
     FM010100 31013KT P6SM SKC=



000
FTUS41 KBOX 310535
TAFORH
TAF
KORH 310535Z 3106/0106 31022G37KT 5SM BLSN BKN060
     FM311200 31018G28KT P6SM SCT250
     FM312300 30015KT P6SM SKC=



000
FTUS41 KBOX 310535
TAFBDL
TAF
KBDL 310535Z 3106/0112 32015G27KT P6SM FEW250
     FM312200 31012G24KT P6SM SKC
     FM010200 30009KT P6SM SKC
     FM010600 28005KT P6SM FEW250=



000
FTUS41 KBOX 310535
TAFBAF
TAF
KBAF 310535Z 3106/0106 33016G27KT P6SM FEW250
     FM312200 31012G23KT P6SM SKC
     FM010200 30009KT P6SM FEW250=



000
FTUS41 KBOX 310535
TAFACK
TAF
KACK 310535Z 3106/0106 32024G35KT P6SM OVC025
     FM310800 32025G35KT 4SM -SN OVC015
     FM311300 32028G40KT P6SM OVC040
     FM311900 31028G39KT P6SM SCT250=



000
FTUS41 KBOX 310535
TAFPVD
TAF
KPVD 310535Z 3106/0106 32016G28KT P6SM BKN050
     FM311400 32017G38KT P6SM SCT250
     FM312200 31015G29KT P6SM SKC
     FM010100 31013KT P6SM SKC=



000
FTUS41 KBOX 310535
TAFBAF
TAF
KBAF 310535Z 3106/0106 33016G27KT P6SM FEW250
     FM312200 31012G23KT P6SM SKC
     FM010200 30009KT P6SM FEW250=



000
FTUS41 KBOX 310535
TAFBOS
TAF
KBOS 310535Z 3106/0112 31020G37KT 4SM -SN OVC040
     FM311000 31021G36KT P6SM OVC040
     FM311600 31020G39KT P6SM SCT250
     FM010000 31016G30KT P6SM SKC
     FM010500 29013G21KT P6SM SKC
     FM011100 26010KT P6SM SCT200=



000
FTUS41 KBOX 310535
TAFBDL
TAF
KBDL 310535Z 3106/0112 32015G27KT P6SM FEW250
     FM312200 31012G24KT P6SM SKC
     FM010200 30009KT P6SM SKC
     FM010600 28005KT P6SM FEW250=



000
FTUS41 KBOX 310535
TAFACK
TAF
KACK 310535Z 3106/0106 32024G35KT P6SM OVC025
     FM310800 32025G35KT 4SM -SN OVC015
     FM311300 32028G40KT P6SM OVC040
     FM311900 31028G39KT P6SM SCT250=



000
FTUS41 KBOX 310535
TAFORH
TAF
KORH 310535Z 3106/0106 31022G37KT 5SM BLSN BKN060
     FM311200 31018G28KT P6SM SCT250
     FM312300 30015KT P6SM SKC=



000
FTUS41 KBOX 302320
TAFBAF
TAF
KBAF 302320Z 3100/3124 32012G26KT P6SM OVC060
     FM311000 33013G26KT P6SM SCT250
     FM311400 33016G28KT P6SM FEW250=



000
FTUS41 KBOX 302320
TAFACK
TAF
KACK 302320Z 3100/3124 31017KT P6SM OVC008
     FM310400 31022G31KT 3SM -SN OVC015
     FM310600 31023G33KT 2SM -SN OVC025
     FM311400 32027G43KT P6SM OVC040
     FM311800 31027G43KT P6SM BKN050
     FM312100 31027G42KT P6SM SCT250=



000
FTUS41 KBOX 302320
TAFORH
TAF
KORH 302320Z 3100/3124 31014G24KT 6SM -SN OVC035
     FM310100 31015G27KT P6SM OVC050
     FM311500 31017KT P6SM SCT250=



000
FTUS41 KBOX 302320
TAFPVD
TAF
KPVD 302320Z 3100/3124 31012G22KT 6SM -SN OVC035
     FM310200 32013G27KT P6SM OVC045
     FM311100 31016G33KT P6SM OVC060
     FM311600 32017G36KT P6SM SCT250
     FM312200 31013G27KT P6SM SKC=



000
FTUS41 KBOX 302320
TAFBAF
TAF
KBAF 302320Z 3100/3124 32012G26KT P6SM OVC060
     FM311000 33013G26KT P6SM SCT250
     FM311400 33016G28KT P6SM FEW250=



000
FTUS41 KBOX 302320
TAFACK
TAF
KACK 302320Z 3100/3124 31017KT P6SM OVC008
     FM310400 31022G31KT 3SM -SN OVC015
     FM310600 31023G33KT 2SM -SN OVC025
     FM311400 32027G43KT P6SM OVC040
     FM311800 31027G43KT P6SM BKN050
     FM312100 31027G42KT P6SM SCT250=



000
FTUS41 KBOX 302320
TAFORH
TAF
KORH 302320Z 3100/3124 31014G24KT 6SM -SN OVC035
     FM310100 31015G27KT P6SM OVC050
     FM311500 31017KT P6SM SCT250=



000
FTUS41 KBOX 302320
TAFBOS
TAF
KBOS 302320Z 3100/0106 31012G22KT 6SM -SN OVC020
      TEMPO 3100/3101 2SM -SN OVC025
     FM310100 31018G28KT P6SM OVC035
      TEMPO 3107/3110 6SM -SN OVC025
     FM311100 31024G38KT P6SM OVC040
     FM311800 30023G37KT P6SM SCT250
     FM010100 30017G28KT P6SM SKC=



000
FTUS41 KBOX 302320
TAFBDL
TAF
KBDL 302320Z 3100/0106 32012G26KT P6SM BKN060
     FM311000 32013G28KT P6SM SCT250
     FM312300 31009KT P6SM SKC
     FM010300 28005KT P6SM FEW200=



000
FTUS41 KBOX 302320
TAFPVD
TAF
KPVD 302320Z 3100/3124 31012G22KT 6SM -SN OVC035
     FM310200 32013G27KT P6SM OVC045
     FM311100 31016G33KT P6SM OVC060
     FM311600 32017G36KT P6SM SCT250
     FM312200 31013G27KT P6SM SKC=



000
FTUS41 KBOX 302320
TAFBOS
TAF
KBOS 302320Z 3100/0106 31012G22KT 6SM -SN OVC020
      TEMPO 3100/3101 2SM -SN OVC025
     FM310100 31018G28KT P6SM OVC035
      TEMPO 3107/3110 6SM -SN OVC025
     FM311100 31024G38KT P6SM OVC040
     FM311800 30023G37KT P6SM SCT250
     FM010100 30017G28KT P6SM SKC=



000
FTUS41 KBOX 302320
TAFBDL
TAF
KBDL 302320Z 3100/0106 32012G26KT P6SM BKN060
     FM311000 32013G28KT P6SM SCT250
     FM312300 31009KT P6SM SKC
     FM010300 28005KT P6SM FEW200=



000
FTUS41 KBOX 302126 AAA
TAFBAF
TAF AMD
KBAF 302126Z 3021/3118 32014G26KT P6SM OVC040
     FM311000 32014G26KT P6SM SCT200=



000
FTUS41 KBOX 302126 AAA
TAFORH
TAF AMD
KORH 302126Z 3021/3118 30011KT P6SM -SN SCT010 OVC035
      TEMPO 3021/3023 OVC015
     FM310000 32012G25KT P6SM OVC025
     FM310300 32014G30KT P6SM OVC040
     FM311500 31016G30KT P6SM SCT200=



000
FTUS41 KBOX 302126 AAA
TAFBDL
TAF AMD
KBDL 302126Z 3021/3124 32013G27KT P6SM BKN040
     FM311000 32014G28KT P6SM SCT200=



000
FTUS41 KBOX 302126 AAA
TAFBOS
TAF AMD
KBOS 302126Z 3021/3124 32006KT P6SM -SN SCT015 OVC035
      TEMPO 3021/3023 OVC015
     FM302300 32011G23KT P6SM OVC035
     FM310300 32015G34KT P6SM OVC040
     FM311800 31017G36KT P6SM SCT250=



000
FTUS41 KBOX 302126 AAA
TAFPVD
TAF AMD
KPVD 302126Z 3021/3118 31010KT 5SM -SN BR SCT015 OVC035
      TEMPO 3021/3023 OVC025
     FM302300 32010G21KT P6SM OVC015
     FM310300 32013G30KT P6SM OVC040
     FM311600 32015G36KT P6SM SCT250=



000
FTUS41 KBOX 302126 AAA
TAFACK
TAF AMD
KACK 302126Z 3021/3118 31009KT P6SM -RA BKN006 OVC015
     FM310100 31018G28KT P6SM OVC015
     FM310400 32020G31KT 3SM -SN OVC020
     FM310600 32023G33KT 2SM -SN OVC025
     FM311300 32024G40KT P6SM OVC015=



000
FTUS41 KBOX 302126 AAA
TAFPVD
TAF AMD
KPVD 302126Z 3021/3118 31010KT 5SM -SN BR SCT015 OVC035
      TEMPO 3021/3023 OVC025
     FM302300 32010G21KT P6SM OVC015
     FM310300 32013G30KT P6SM OVC040
     FM311600 32015G36KT P6SM SCT250=



000
FTUS41 KBOX 302126 AAA
TAFBAF
TAF AMD
KBAF 302126Z 3021/3118 32014G26KT P6SM OVC040
     FM311000 32014G26KT P6SM SCT200=



000
FTUS41 KBOX 302126 AAA
TAFBDL
TAF AMD
KBDL 302126Z 3021/3124 32013G27KT P6SM BKN040
     FM311000 32014G28KT P6SM SCT200=



000
FTUS41 KBOX 302126 AAA
TAFACK
TAF AMD
KACK 302126Z 3021/3118 31009KT P6SM -RA BKN006 OVC015
     FM310100 31018G28KT P6SM OVC015
     FM310400 32020G31KT 3SM -SN OVC020
     FM310600 32023G33KT 2SM -SN OVC025
     FM311300 32024G40KT P6SM OVC015=



000
FTUS41 KBOX 302126 AAA
TAFBOS
TAF AMD
KBOS 302126Z 3021/3124 32006KT P6SM -SN SCT015 OVC035
      TEMPO 3021/3023 OVC015
     FM302300 32011G23KT P6SM OVC035
     FM310300 32015G34KT P6SM OVC040
     FM311800 31017G36KT P6SM SCT250=



000
FTUS41 KBOX 302126 AAA
TAFORH
TAF AMD
KORH 302126Z 3021/3118 30011KT P6SM -SN SCT010 OVC035
      TEMPO 3021/3023 OVC015
     FM310000 32012G25KT P6SM OVC025
     FM310300 32014G30KT P6SM OVC040
     FM311500 31016G30KT P6SM SCT200=



000
FTUS41 KBOX 301737
TAFBDL
TAF
KBDL 301737Z 3018/3124 31012KT P6SM SCT020 BKN030 OVC090
     FM302100 32011G23KT P6SM OVC025
     FM310000 32013G27KT P6SM BKN040
     FM311000 32014G28KT P6SM SCT200=



000
FTUS41 KBOX 301737
TAFORH
TAF
KORH 301737Z 3018/3118 29011KT P6SM SCT010 BKN015 OVC050
     FM302100 32009KT P6SM OVC010
     FM310000 32012G25KT P6SM OVC025
     FM310300 32014G30KT P6SM OVC040
     FM311500 31016G30KT P6SM SCT200=



000
FTUS41 KBOX 301737
TAFPVD
TAF
KPVD 301737Z 3018/3118 28004KT 5SM -SN BR FEW007 OVC025
     FM301900 32008KT P6SM OVC020
     FM302300 32010G21KT P6SM OVC015
     FM310300 32013G30KT P6SM OVC040
     FM311600 32015G36KT P6SM SCT250=



000
FTUS41 KBOX 301737
TAFBAF
TAF
KBAF 301737Z 3018/3118 31008KT P6SM FEW020 FEW040 OVC090
     FM302100 32011G22KT P6SM OVC020
     FM310000 32014G26KT P6SM OVC040
     FM311000 32014G26KT P6SM SCT200=



000
FTUS41 KBOX 301737
TAFBOS
TAF
KBOS 301737Z 3018/3124 28007KT 3SM -SN BR BKN025 OVC050
     FM302000 32006KT P6SM OVC010
     FM302300 32011G23KT P6SM OVC010
     FM310300 32015G34KT P6SM OVC040
     FM311800 31017G36KT P6SM SCT250=



000
FTUS41 KBOX 301737
TAFACK
TAF
KACK 301737Z 3018/3118 31004KT P6SM SCT007 OVC015
     FM302200 29010G19KT P6SM OVC010
     FM310200 31018G28KT P6SM OVC010
     FM310400 32020G31KT 3SM -SN OVC020
     FM310600 32023G33KT 2SM -SN OVC025
     FM311300 32024G40KT P6SM OVC015=



000
FTUS41 KBOX 301737
TAFBOS
TAF
KBOS 301737Z 3018/3124 28007KT 3SM -SN BR BKN025 OVC050
     FM302000 32006KT P6SM OVC010
     FM302300 32011G23KT P6SM OVC010
     FM310300 32015G34KT P6SM OVC040
     FM311800 31017G36KT P6SM SCT250=



000
FTUS41 KBOX 301737
TAFBDL
TAF
KBDL 301737Z 3018/3124 31012KT P6SM SCT020 BKN030 OVC090
     FM302100 32011G23KT P6SM OVC025
     FM310000 32013G27KT P6SM BKN040
     FM311000 32014G28KT P6SM SCT200=



000
FTUS41 KBOX 301737
TAFBAF
TAF
KBAF 301737Z 3018/3118 31008KT P6SM FEW020 FEW040 OVC090
     FM302100 32011G22KT P6SM OVC020
     FM310000 32014G26KT P6SM OVC040
     FM311000 32014G26KT P6SM SCT200=



000
FTUS41 KBOX 301737
TAFORH
TAF
KORH 301737Z 3018/3118 29011KT P6SM SCT010 BKN015 OVC050
     FM302100 32009KT P6SM OVC010
     FM310000 32012G25KT P6SM OVC025
     FM310300 32014G30KT P6SM OVC040
     FM311500 31016G30KT P6SM SCT200=



000
FTUS41 KBOX 301737
TAFACK
TAF
KACK 301737Z 3018/3118 31004KT P6SM SCT007 OVC015
     FM302200 29010G19KT P6SM OVC010
     FM310200 31018G28KT P6SM OVC010
     FM310400 32020G31KT 3SM -SN OVC020
     FM310600 32023G33KT 2SM -SN OVC025
     FM311300 32024G40KT P6SM OVC015=



000
FTUS41 KBOX 301737
TAFPVD
TAF
KPVD 301737Z 3018/3118 28004KT 5SM -SN BR FEW007 OVC025
     FM301900 32008KT P6SM OVC020
     FM302300 32010G21KT P6SM OVC015
     FM310300 32013G30KT P6SM OVC040
     FM311600 32015G36KT P6SM SCT250=



000
FTUS41 KBOX 301646 AAC
TAFBOS
TAF AMD
KBOS 301646Z 3017/3118 27006KT 1SM -SN BR BKN010 OVC015
     FM301730 29011KT 3SM -SN BR BKN015 OVC020
     FM302000 33009KT 3SM BR OVC015
     FM310000 32013G23KT 3SM -SN OVC015
     FM310500 32019G32KT 1SM -SN OVC010
     FM310900 32021G37KT 2SM -SN OVC010=



000
FTUS41 KBOX 301646 AAC
TAFBOS
TAF AMD
KBOS 301646Z 3017/3118 27006KT 1SM -SN BR BKN010 OVC015
     FM301730 29011KT 3SM -SN BR BKN015 OVC020
     FM302000 33009KT 3SM BR OVC015
     FM310000 32013G23KT 3SM -SN OVC015
     FM310500 32019G32KT 1SM -SN OVC010
     FM310900 32021G37KT 2SM -SN OVC010=



000
FTUS41 KBOX 301448 AAA
TAFACK
TAF AMD
KACK 301448Z 3015/3112 11006KT 5SM -SHRA BR SCT008 OVC035
     FM301600 17007KT 2SM -RA OVC008
     FM302000 28010KT 2SM -RA OVC008
     FM302200 31012KT P6SM OVC008
     FM310100 31016G25KT P6SM OVC008
     FM310200 31018G27KT P6SM -SN OVC015
     FM310300 31020G29KT 3SM -SN OVC008=



000
FTUS41 KBOX 301448 AAA
TAFACK
TAF AMD
KACK 301448Z 3015/3112 11006KT 5SM -SHRA BR SCT008 OVC035
     FM301600 17007KT 2SM -RA OVC008
     FM302000 28010KT 2SM -RA OVC008
     FM302200 31012KT P6SM OVC008
     FM310100 31016G25KT P6SM OVC008
     FM310200 31018G27KT P6SM -SN OVC015
     FM310300 31020G29KT 3SM -SN OVC008=



000
FTUS41 KBOX 301435 AAA
TAFBAF
TAF AMD
KBAF 301435Z 3015/3112 00000KT 2SM -SN BR BKN004 OVC035
     FM301700 33005KT P6SM OVC020
     FM302200 32011G24KT P6SM OVC045
     FM311100 32016G27KT P6SM SCT090=



000
FTUS41 KBOX 301435 AAA
TAFORH
TAF AMD
KORH 301435Z 3015/3112 26006KT 2SM -SN BR BKN007 OVC015
     FM302000 32009KT 2SM -SN OVC015
     FM302300 32013G23KT P6SM OVC020
     FM310600 31019G34KT P6SM OVC020
     FM310900 31019KT P6SM OVC020=



000
FTUS41 KBOX 301434 AAA
TAFBDL
TAF AMD
KBDL 301434Z 3015/3118 31005KT 3SM -SN BR BKN030 OVC050
     FM301800 33007KT P6SM OVC035
     FM302300 32013G26KT P6SM OVC045
     FM310700 32016G32KT P6SM BKN070
     FM311200 32015G27KT P6SM SCT090=



000
FTUS41 KBOX 301432 AAB
TAFBOS
TAF AMD
KBOS 301432Z 3015/3118 18004KT 6SM -SN BR SCT015 OVC045
     FM301515 17005KT 2SM -SN SCT008 OVC015
     FM301700 05005KT 2SM -SN SCT008 OVC015
     FM302100 33009KT 2SM -SN OVC015
     FM310000 32013G23KT 3SM -SN OVC015
     FM310500 32019G32KT 1SM -SN OVC010
     FM310900 32021G37KT 2SM -SN OVC010=



000
FTUS41 KBOX 301429 AAA
TAFPVD
TAF AMD
KPVD 301429Z 3014/3112 00000KT 1SM -SN BR SCT012 OVC020
     FM301600 00000KT 3SM -SN OVC012
     FM301800 33006KT 2SM -SN OVC008
     FM302000 33007KT P6SM OVC008
     FM310000 32013G25KT P6SM OVC015
     FM310600 32017G35KT 1SM -SN OVC020
     FM310800 32018G36KT P6SM OVC020=



000
FTUS41 KBOX 301429 AAA
TAFPVD
TAF AMD
KPVD 301429Z 3014/3112 00000KT 1SM -SN BR SCT012 OVC020
     FM301600 00000KT 3SM -SN OVC012
     FM301800 33006KT 2SM -SN OVC008
     FM302000 33007KT P6SM OVC008
     FM310000 32013G25KT P6SM OVC015
     FM310600 32017G35KT 1SM -SN OVC020
     FM310800 32018G36KT P6SM OVC020=



000
FTUS41 KBOX 301144 AAA
TAFBOS
TAF AMD
KBOS 301144Z 3012/3118 18004KT P6SM OVC025
     FM301500 17005KT 5SM -SN OVC025
     FM301700 05005KT 3SM -SN OVC015
     FM302100 33009KT 2SM -SN OVC015
     FM310000 32013G23KT 3SM -SN OVC015
     FM310500 32019G32KT 1SM -SN OVC010
     FM310900 32021G37KT 2SM -SN OVC010=



000
FTUS41 KBOX 301144 AAA
TAFBOS
TAF AMD
KBOS 301144Z 3012/3118 18004KT P6SM OVC025
     FM301500 17005KT 5SM -SN OVC025
     FM301700 05005KT 3SM -SN OVC015
     FM302100 33009KT 2SM -SN OVC015
     FM310000 32013G23KT 3SM -SN OVC015
     FM310500 32019G32KT 1SM -SN OVC010
     FM310900 32021G37KT 2SM -SN OVC010=



000
FTUS41 KBOX 301143 CCA
TAFBAF
TAF COR
KBAF 301143Z 3012/3112 00000KT 5SM BR BKN004 OVC035
     FM301800 33005KT P6SM OVC020
     FM302200 32011G24KT P6SM OVC045
     FM311100 32016G27KT P6SM SCT090=



000
FTUS41 KBOX 301143 CCA
TAFBAF
TAF COR
KBAF 301143Z 3012/3112 00000KT 5SM BR BKN004 OVC035
     FM301800 33005KT P6SM OVC020
     FM302200 32011G24KT P6SM OVC045
     FM311100 32016G27KT P6SM SCT090=



000
FTUS41 KBOX 301140
TAFACK
TAF
KACK 301140Z 3012/3112 14014KT P6SM FEW020 OVC050
     FM301500 16009KT 3SM -RA OVC030
     FM301800 17007KT 2SM -RA OVC008
     FM302000 28010KT 2SM -RA OVC008
     FM302200 31012KT P6SM OVC008
     FM310100 31016G25KT P6SM OVC008
     FM310200 31018G27KT P6SM -SN OVC015
     FM310300 31020G29KT 3SM -SN OVC008=



000
FTUS41 KBOX 301140
TAFBOS
TAF
KBOS 301140Z 3012/3118 18005KT P6SM SCT015 OVC035
     FM301500 17005KT 5SM -SN OVC035
     FM301700 05005KT 3SM -SN OVC015
     FM302100 33009KT 2SM -SN OVC015
     FM310000 32013G23KT 3SM -SN OVC015
     FM310500 32019G32KT 1SM -SN OVC010
     FM310900 32021G37KT 2SM -SN OVC010=



000
FTUS41 KBOX 301140
TAFPVD
TAF
KPVD 301140Z 3012/3112 15004KT P6SM FEW008 OVC040
     FM301600 00000KT 3SM -SN OVC008
     FM301800 33006KT 2SM -SN OVC008
     FM302000 33007KT P6SM OVC008
     FM310000 32013G25KT P6SM OVC015
     FM310600 32017G35KT 1SM -SN OVC020
     FM310800 32018G36KT P6SM OVC020=



000
FTUS41 KBOX 301140
TAFBAF
TAF
KBAF 301140Z 3012/3112 00000KT P6SM SCT005 OVC040
     FM301800 33005KT P6SM OVC035
     FM302200 32011G24KT P6SM OVC045
     FM311100 32016G27KT P6SM SCT090=



000
FTUS41 KBOX 301140
TAFACK
TAF
KACK 301140Z 3012/3112 14014KT P6SM FEW020 OVC050
     FM301500 16009KT 3SM -RA OVC030
     FM301800 17007KT 2SM -RA OVC008
     FM302000 28010KT 2SM -RA OVC008
     FM302200 31012KT P6SM OVC008
     FM310100 31016G25KT P6SM OVC008
     FM310200 31018G27KT P6SM -SN OVC015
     FM310300 31020G29KT 3SM -SN OVC008=



000
FTUS41 KBOX 301140
TAFORH
TAF
KORH 301140Z 3012/3112 VRB03KT 6SM BR OVC003
     FM301500 28005KT 2SM -SN OVC015
     FM302000 32009KT 2SM -SN OVC015
     FM302300 32013G23KT P6SM OVC020
     FM310600 31019G34KT P6SM OVC020
     FM310900 31019KT P6SM OVC020=



000
FTUS41 KBOX 301140
TAFBDL
TAF
KBDL 301140Z 3012/3118 VRB03KT P6SM FEW005 OVC040
     FM301800 33007KT P6SM OVC035
     FM302300 32013G26KT P6SM OVC045
     FM310700 32016G32KT P6SM BKN070
     FM311200 32015G27KT P6SM SCT090=



000
FTUS41 KBOX 301140
TAFORH
TAF
KORH 301140Z 3012/3112 VRB03KT 6SM BR OVC003
     FM301500 28005KT 2SM -SN OVC015
     FM302000 32009KT 2SM -SN OVC015
     FM302300 32013G23KT P6SM OVC020
     FM310600 31019G34KT P6SM OVC020
     FM310900 31019KT P6SM OVC020=



000
FTUS41 KBOX 301140
TAFBAF
TAF
KBAF 301140Z 3012/3112 00000KT P6SM SCT005 OVC040
     FM301800 33005KT P6SM OVC035
     FM302200 32011G24KT P6SM OVC045
     FM311100 32016G27KT P6SM SCT090=



000
FTUS41 KBOX 301140
TAFBOS
TAF
KBOS 301140Z 3012/3118 18005KT P6SM SCT015 OVC035
     FM301500 17005KT 5SM -SN OVC035
     FM301700 05005KT 3SM -SN OVC015
     FM302100 33009KT 2SM -SN OVC015
     FM310000 32013G23KT 3SM -SN OVC015
     FM310500 32019G32KT 1SM -SN OVC010
     FM310900 32021G37KT 2SM -SN OVC010=



000
FTUS41 KBOX 301140
TAFPVD
TAF
KPVD 301140Z 3012/3112 15004KT P6SM FEW008 OVC040
     FM301600 00000KT 3SM -SN OVC008
     FM301800 33006KT 2SM -SN OVC008
     FM302000 33007KT P6SM OVC008
     FM310000 32013G25KT P6SM OVC015
     FM310600 32017G35KT 1SM -SN OVC020
     FM310800 32018G36KT P6SM OVC020=



000
FTUS41 KBOX 301140
TAFBDL
TAF
KBDL 301140Z 3012/3118 VRB03KT P6SM FEW005 OVC040
     FM301800 33007KT P6SM OVC035
     FM302300 32013G26KT P6SM OVC045
     FM310700 32016G32KT P6SM BKN070
     FM311200 32015G27KT P6SM SCT090=



000
FTUS41 KBOX 300931 AAA
TAFBOS
TAF AMD
KBOS 300931Z 3010/3112 16008KT P6SM OVC020
     FM301100 15007KT 3SM -SN OVC012
     FM301700 05005KT 3SM -SN OVC015
     FM310000 32012G20KT 2SM -SN OVC015
     FM310900 32021G37KT P6SM OVC010=



000
FTUS41 KBOX 300931 AAA
TAFPVD
TAF AMD
KPVD 300931Z 3010/3106 15004KT 5SM -SN BR BKN011 OVC020
     FM301500 00000KT 2SM -SN BR OVC008
     FM302000 33007KT P6SM OVC008
     FM302100 33008KT P6SM OVC015
     FM310000 32013G25KT P6SM OVC015=



000
FTUS41 KBOX 300931 AAA
TAFBDL
TAF AMD
KBDL 300931Z 3010/3112 VRB03KT 3SM -SN BR SCT007 OVC020
     FM301700 33005KT P6SM OVC020
     FM302000 32010G19KT P6SM OVC020
     FM302300 32013G26KT P6SM OVC045
     FM310700 32016G29KT P6SM BKN070=



000
FTUS41 KBOX 300931 AAA
TAFBOS
TAF AMD
KBOS 300931Z 3010/3112 16008KT P6SM OVC020
     FM301100 15007KT 3SM -SN OVC012
     FM301700 05005KT 3SM -SN OVC015
     FM310000 32012G20KT 2SM -SN OVC015
     FM310900 32021G37KT P6SM OVC010=



000
FTUS41 KBOX 300931 AAA
TAFPVD
TAF AMD
KPVD 300931Z 3010/3106 15004KT 5SM -SN BR BKN011 OVC020
     FM301500 00000KT 2SM -SN BR OVC008
     FM302000 33007KT P6SM OVC008
     FM302100 33008KT P6SM OVC015
     FM310000 32013G25KT P6SM OVC015=



000
FTUS41 KBOX 300931 AAA
TAFBDL
TAF AMD
KBDL 300931Z 3010/3112 VRB03KT 3SM -SN BR SCT007 OVC020
     FM301700 33005KT P6SM OVC020
     FM302000 32010G19KT P6SM OVC020
     FM302300 32013G26KT P6SM OVC045
     FM310700 32016G29KT P6SM BKN070=



000
FTUS41 KBOX 300541
TAFORH
TAF
KORH 300541Z 3006/3106 19005KT 2SM -SN OVC010
     FM301300 23005KT 2SM -SN OVC015
     FM301500 29005KT 1SM -SN OVC015
     FM302100 32009KT 2SM -SN OVC015
     FM302300 32013G23KT P6SM OVC020=



000
FTUS41 KBOX 300541
TAFBAF
TAF
KBAF 300541Z 3006/3106 17006KT 2SM -SN OVC015
     FM301400 00000KT 2SM -SN OVC025
     FM301700 33005KT P6SM OVC020
     FM302000 32010G19KT P6SM OVC020
     FM302100 32011G24KT P6SM OVC045=



000
FTUS41 KBOX 300541
TAFACK
TAF
KACK 300541Z 3006/3106 15006KT P6SM OVC060
     FM300800 16008KT P6SM OVC015
     FM301000 16009KT P6SM -RA OVC015
     FM301200 15010G20KT 3SM -RA OVC010
     FM301500 16009KT 3SM -RA OVC030
     FM301800 17007KT 2SM -RA OVC008
     FM302100 31012KT P6SM OVC008
     FM310200 31016G28KT 3SM -SN OVC008=



000
FTUS41 KBOX 300541
TAFBDL
TAF
KBDL 300541Z 3006/3112 17004KT 3SM -SN OVC015
     FM300800 17005KT 2SM -SN OVC015
     FM301700 33005KT P6SM OVC020
     FM302000 32010G19KT P6SM OVC020
     FM302300 32013G26KT P6SM OVC045
     FM310700 32016G29KT P6SM BKN070=



000
FTUS41 KBOX 300541
TAFBOS
TAF
KBOS 300541Z 3006/3112 16007KT P6SM -SN BKN020 OVC050
     FM300800 16007KT 3SM -SN OVC015
     FM301000 15007KT 2SM -SN OVC010
     FM301700 05005KT 3SM -SN OVC015
     FM310000 32012G20KT 2SM -SN OVC015
     FM310900 32021G37KT P6SM OVC010=



000
FTUS41 KBOX 300541
TAFPVD
TAF
KPVD 300541Z 3006/3106 15004KT P6SM -SN OVC020
     FM300800 19004KT 3SM -SN OVC020
     FM301500 00000KT 2SM -SN OVC008
     FM302000 33007KT P6SM OVC008
     FM302100 33008KT P6SM OVC015
     FM310000 32013G25KT P6SM OVC015=



000
FTUS41 KBOX 300541
TAFBDL
TAF
KBDL 300541Z 3006/3112 17004KT 3SM -SN OVC015
     FM300800 17005KT 2SM -SN OVC015
     FM301700 33005KT P6SM OVC020
     FM302000 32010G19KT P6SM OVC020
     FM302300 32013G26KT P6SM OVC045
     FM310700 32016G29KT P6SM BKN070=



000
FTUS41 KBOX 300541
TAFACK
TAF
KACK 300541Z 3006/3106 15006KT P6SM OVC060
     FM300800 16008KT P6SM OVC015
     FM301000 16009KT P6SM -RA OVC015
     FM301200 15010G20KT 3SM -RA OVC010
     FM301500 16009KT 3SM -RA OVC030
     FM301800 17007KT 2SM -RA OVC008
     FM302100 31012KT P6SM OVC008
     FM310200 31016G28KT 3SM -SN OVC008=



000
FTUS41 KBOX 300541
TAFBAF
TAF
KBAF 300541Z 3006/3106 17006KT 2SM -SN OVC015
     FM301400 00000KT 2SM -SN OVC025
     FM301700 33005KT P6SM OVC020
     FM302000 32010G19KT P6SM OVC020
     FM302100 32011G24KT P6SM OVC045=



000
FTUS41 KBOX 300541
TAFORH
TAF
KORH 300541Z 3006/3106 19005KT 2SM -SN OVC010
     FM301300 23005KT 2SM -SN OVC015
     FM301500 29005KT 1SM -SN OVC015
     FM302100 32009KT 2SM -SN OVC015
     FM302300 32013G23KT P6SM OVC020=



000
FTUS41 KBOX 300541
TAFBOS
TAF
KBOS 300541Z 3006/3112 16007KT P6SM -SN BKN020 OVC050
     FM300800 16007KT 3SM -SN OVC015
     FM301000 15007KT 2SM -SN OVC010
     FM301700 05005KT 3SM -SN OVC015
     FM310000 32012G20KT 2SM -SN OVC015
     FM310900 32021G37KT P6SM OVC010=



000
FTUS41 KBOX 300541
TAFPVD
TAF
KPVD 300541Z 3006/3106 15004KT P6SM -SN OVC020
     FM300800 19004KT 3SM -SN OVC020
     FM301500 00000KT 2SM -SN OVC008
     FM302000 33007KT P6SM OVC008
     FM302100 33008KT P6SM OVC015
     FM310000 32013G25KT P6SM OVC015=



000
FTUS41 KBOX 292330
TAFBAF
TAF
KBAF 292330Z 3000/3024 VRB03KT P6SM BKN070
     FM300400 VRB03KT 3SM -SN OVC015
     FM300500 VRB03KT 2SM -SN OVC008
     FM301600 28006KT P6SM OVC015
     FM301800 32008KT P6SM OVC025
     FM302200 32012G24KT P6SM BKN035=



000
FTUS41 KBOX 292330
TAFACK
TAF
KACK 292330Z 3000/3024 VRB05KT P6SM SCT150
     FM300900 16010KT P6SM OVC050
     FM301100 15011KT P6SM -RA OVC015
     FM301200 15011KT 3SM -RA BR OVC015
     FM301500 18009KT 2SM -RA BR OVC015
     FM302000 23009KT 1SM -RA BR OVC008
     FM302200 27012KT 2SM -RA BR OVC010=



000
FTUS41 KBOX 292330
TAFBAF
TAF
KBAF 292330Z 3000/3024 VRB03KT P6SM BKN070
     FM300400 VRB03KT 3SM -SN OVC015
     FM300500 VRB03KT 2SM -SN OVC008
     FM301600 28006KT P6SM OVC015
     FM301800 32008KT P6SM OVC025
     FM302200 32012G24KT P6SM BKN035=



000
FTUS41 KBOX 292330
TAFORH
TAF
KORH 292330Z 3000/3024 18005KT P6SM BKN100
     FM300500 17006KT 3SM -SN OVC025
     FM300600 17006KT 2SM -SN OVC010
     FM301500 26005KT 1SM -SN OVC008
     FM302100 31009KT 3SM -SN OVC015=



000
FTUS41 KBOX 292330
TAFPVD
TAF
KPVD 292330Z 3000/3024 VRB03KT P6SM BKN120
     FM300300 16004KT P6SM BKN025
     FM300500 16004KT 3SM -SN OVC015
     FM301000 VRB04KT 3SM -SN OVC020
     FM301600 26005KT 2SM -SN OVC008
     FM301800 29005KT 3SM -SN OVC015=



000
FTUS41 KBOX 292330
TAFBDL
TAF
KBDL 292330Z 3000/3106 16004KT P6SM BKN070
     FM300400 17004KT 3SM -SN OVC035
     FM300700 17004KT 2SM -SN OVC020
     FM301400 24005KT 2SM -SN OVC015
     FM301600 29006KT P6SM OVC020
     FM302000 32010G22KT P6SM OVC020=



000
FTUS41 KBOX 292330
TAFBDL
TAF
KBDL 292330Z 3000/3106 16004KT P6SM BKN070
     FM300400 17004KT 3SM -SN OVC035
     FM300700 17004KT 2SM -SN OVC020
     FM301400 24005KT 2SM -SN OVC015
     FM301600 29006KT P6SM OVC020
     FM302000 32010G22KT P6SM OVC020=



000
FTUS41 KBOX 292330
TAFBOS
TAF
KBOS 292330Z 3000/3106 17004KT P6SM BKN130
     FM300700 16007KT P6SM OVC010
     FM300800 16007KT 3SM -SN OVC010
     FM301300 17006KT 2SM -SN OVC008
     FM301500 VRB05KT 1SM -SN OVC006
     FM302300 31010G22KT 3SM -SN OVC008=



000
FTUS41 KBOX 292330
TAFPVD
TAF
KPVD 292330Z 3000/3024 VRB03KT P6SM BKN120
     FM300300 16004KT P6SM BKN025
     FM300500 16004KT 3SM -SN OVC015
     FM301000 VRB04KT 3SM -SN OVC020
     FM301600 26005KT 2SM -SN OVC008
     FM301800 29005KT 3SM -SN OVC015=



000
FTUS41 KBOX 292330
TAFORH
TAF
KORH 292330Z 3000/3024 18005KT P6SM BKN100
     FM300500 17006KT 3SM -SN OVC025
     FM300600 17006KT 2SM -SN OVC010
     FM301500 26005KT 1SM -SN OVC008
     FM302100 31009KT 3SM -SN OVC015=



000
FTUS41 KBOX 292330
TAFACK
TAF
KACK 292330Z 3000/3024 VRB05KT P6SM SCT150
     FM300900 16010KT P6SM OVC050
     FM301100 15011KT P6SM -RA OVC015
     FM301200 15011KT 3SM -RA BR OVC015
     FM301500 18009KT 2SM -RA BR OVC015
     FM302000 23009KT 1SM -RA BR OVC008
     FM302200 27012KT 2SM -RA BR OVC010=



000
FTUS41 KBOX 292205 AAA
TAFBDL
TAF AMD
KBDL 292205Z 2922/3024 12006KT P6SM SCT120 BKN140
     FM300400 16004KT 3SM -SN OVC010
     FM301400 26004KT 1SM -SN OVC008
     FM301500 27004KT P6SM OVC015
     FM301800 33008KT P6SM OVC025
     FM302100 31012G25KT P6SM OVC050=



000
FTUS41 KBOX 292205 AAA
TAFBDL
TAF AMD
KBDL 292205Z 2922/3024 12006KT P6SM SCT120 BKN140
     FM300400 16004KT 3SM -SN OVC010
     FM301400 26004KT 1SM -SN OVC008
     FM301500 27004KT P6SM OVC015
     FM301800 33008KT P6SM OVC025
     FM302100 31012G25KT P6SM OVC050=



000
FTUS41 KBOX 292205 AAA
TAFPVD
TAF AMD
KPVD 292205Z 2922/3018 20005KT P6SM FEW160
     FM300400 16005KT P6SM OVC015
     FM300600 16005KT P6SM -SN OVC015
     FM301300 21004KT 3SM -SN OVC015
     FM301700 28006KT P6SM OVC008=



000
FTUS41 KBOX 292205 AAA
TAFPVD
TAF AMD
KPVD 292205Z 2922/3018 20005KT P6SM FEW160
     FM300400 16005KT P6SM OVC015
     FM300600 16005KT P6SM -SN OVC015
     FM301300 21004KT 3SM -SN OVC015
     FM301700 28006KT P6SM OVC008=



000
FTUS41 KBOX 292204 AAA
TAFBOS
TAF AMD
KBOS 292204Z 2922/3024 09004KT P6SM BKN250
     FM300300 17006KT P6SM BKN100
     FM300700 16008KT P6SM -SN OVC015
     FM300900 15008KT 2SM -SN OVC010
     FM301500 18006KT 1SM -SN OVC005
     FM301700 26006KT 1SM -SN OVC005
     FM302100 30009KT 2SM -SN OVC008
     FM302300 30013G22KT 3SM -SN OVC008=



000
FTUS41 KBOX 291728
TAFBAF
TAF
KBAF 291728Z 2918/3018 VRB03KT P6SM SCT150 BKN250
     FM292200 VRB03KT P6SM BKN110
     FM300300 16004KT P6SM OVC010
     FM300400 VRB03KT 3SM -SN OVC010
     FM300500 VRB03KT 1SM -SN OVC010
     FM301000 VRB03KT 1SM -SN OVC003
     FM301200 VRB03KT 1SM -SN OVC008
     FM301500 29004KT P6SM OVC015=



000
FTUS41 KBOX 291728
TAFORH
TAF
KORH 291728Z 2918/3018 14005KT P6SM BKN250
     FM292300 19005KT P6SM BKN110
     FM300500 19007KT 3SM -SN OVC080
     FM300700 19007KT 2SM -SN OVC010
     FM300800 19006KT 1SM -SN OVC010
     FM301100 21005KT 2SM -SN OVC003
     FM301200 22005KT 1SM -SN OVC008
     FM301500 27005KT 2SM -SN OVC003=



000
FTUS41 KBOX 291728
TAFPVD
TAF
KPVD 291728Z 2918/3018 VRB03KT P6SM BKN250
     FM300100 VRB03KT P6SM BKN110
     FM300400 16005KT P6SM OVC015
     FM300600 16005KT P6SM -SN OVC015
     FM301200 20004KT 3SM -SNRA OVC015
     FM301300 21004KT 3SM -SN OVC015
     FM301700 28006KT P6SM OVC008=



000
FTUS41 KBOX 291728
TAFBOS
TAF
KBOS 291728Z 2918/3024 VRB03KT P6SM BKN250
     FM300300 17006KT P6SM BKN100
     FM300600 16008KT P6SM OVC020
     FM300700 16008KT P6SM -SN OVC015
     FM300900 15008KT 2SM -SN OVC010
     FM301500 18006KT 1SM -SN OVC003
     FM301700 26006KT 1SM -SN OVC003
     FM302100 30009KT 2SM -SN OVC008
     FM302300 30013G22KT 3SM -SN OVC008=



000
FTUS41 KBOX 291728
TAFBDL
TAF
KBDL 291728Z 2918/3024 VRB03KT P6SM SCT150 BKN250
     FM292200 16005KT P6SM BKN110
     FM300400 16004KT 3SM -SN OVC010
     FM300700 18004KT 2SM -SN OVC010
     FM301400 26004KT 1SM -SN OVC008
     FM301500 27004KT P6SM OVC015
     FM301800 33008KT P6SM OVC025
     FM302100 31012G25KT P6SM OVC050=



000
FTUS41 KBOX 291728
TAFACK
TAF
KACK 291728Z 2918/3018 33008KT P6SM FEW250
     FM300200 16006KT P6SM SCT150
     FM300500 16009KT P6SM BKN100
     FM300800 16010G17KT P6SM OVC025
     FM301000 16010G18KT P6SM -RA OVC015
     FM301500 17011KT 2SM -RA OVC008
     FM301700 21008KT 2SM -RA OVC008=



000
FTUS41 KBOX 291728
TAFBAF
TAF
KBAF 291728Z 2918/3018 VRB03KT P6SM SCT150 BKN250
     FM292200 VRB03KT P6SM BKN110
     FM300300 16004KT P6SM OVC010
     FM300400 VRB03KT 3SM -SN OVC010
     FM300500 VRB03KT 1SM -SN OVC010
     FM301000 VRB03KT 1SM -SN OVC003
     FM301200 VRB03KT 1SM -SN OVC008
     FM301500 29004KT P6SM OVC015=



000
FTUS41 KBOX 291728
TAFACK
TAF
KACK 291728Z 2918/3018 33008KT P6SM FEW250
     FM300200 16006KT P6SM SCT150
     FM300500 16009KT P6SM BKN100
     FM300800 16010G17KT P6SM OVC025
     FM301000 16010G18KT P6SM -RA OVC015
     FM301500 17011KT 2SM -RA OVC008
     FM301700 21008KT 2SM -RA OVC008=



000
FTUS41 KBOX 291728
TAFBOS
TAF
KBOS 291728Z 2918/3024 VRB03KT P6SM BKN250
     FM300300 17006KT P6SM BKN100
     FM300600 16008KT P6SM OVC020
     FM300700 16008KT P6SM -SN OVC015
     FM300900 15008KT 2SM -SN OVC010
     FM301500 18006KT 1SM -SN OVC003
     FM301700 26006KT 1SM -SN OVC003
     FM302100 30009KT 2SM -SN OVC008
     FM302300 30013G22KT 3SM -SN OVC008=



000
FTUS41 KBOX 291728
TAFORH
TAF
KORH 291728Z 2918/3018 14005KT P6SM BKN250
     FM292300 19005KT P6SM BKN110
     FM300500 19007KT 3SM -SN OVC080
     FM300700 19007KT 2SM -SN OVC010
     FM300800 19006KT 1SM -SN OVC010
     FM301100 21005KT 2SM -SN OVC003
     FM301200 22005KT 1SM -SN OVC008
     FM301500 27005KT 2SM -SN OVC003=



000
FTUS41 KBOX 291728
TAFPVD
TAF
KPVD 291728Z 2918/3018 VRB03KT P6SM BKN250
     FM300100 VRB03KT P6SM BKN110
     FM300400 16005KT P6SM OVC015
     FM300600 16005KT P6SM -SN OVC015
     FM301200 20004KT 3SM -SNRA OVC015
     FM301300 21004KT 3SM -SN OVC015
     FM301700 28006KT P6SM OVC008=



000
FTUS41 KBOX 291728
TAFBDL
TAF
KBDL 291728Z 2918/3024 VRB03KT P6SM SCT150 BKN250
     FM292200 16005KT P6SM BKN110
     FM300400 16004KT 3SM -SN OVC010
     FM300700 18004KT 2SM -SN OVC010
     FM301400 26004KT 1SM -SN OVC008
     FM301500 27004KT P6SM OVC015
     FM301800 33008KT P6SM OVC025
     FM302100 31012G25KT P6SM OVC050=



000
FTUS41 KBOX 291516 AAA
TAFPVD
TAF AMD
KPVD 291516Z 2915/3012 VRB03KT P6SM BKN250
     FM291800 12004KT P6SM SKC
     FM300100 VRB03KT P6SM BKN100
     FM300400 16005KT P6SM OVC015
     FM300600 16005KT P6SM -SN OVC015=



000
FTUS41 KBOX 291516 AAA
TAFPVD
TAF AMD
KPVD 291516Z 2915/3012 VRB03KT P6SM BKN250
     FM291800 12004KT P6SM SKC
     FM300100 VRB03KT P6SM BKN100
     FM300400 16005KT P6SM OVC015
     FM300600 16005KT P6SM -SN OVC015=



000
FTUS41 KBOX 291515 AAA
TAFBDL
TAF AMD
KBDL 291515Z 2915/3018 VRB03KT P6SM BKN250
     FM292200 16005KT P6SM BKN110
     FM300300 16004KT P6SM OVC015
     FM300400 16004KT 3SM -SN OVC010
     FM300700 18004KT 2SM -SN OVC010
     FM301300 26004KT 1SM -SN OVC008
     FM301500 27004KT P6SM OVC015=



000
FTUS41 KBOX 291515 AAA
TAFBDL
TAF AMD
KBDL 291515Z 2915/3018 VRB03KT P6SM BKN250
     FM292200 16005KT P6SM BKN110
     FM300300 16004KT P6SM OVC015
     FM300400 16004KT 3SM -SN OVC010
     FM300700 18004KT 2SM -SN OVC010
     FM301300 26004KT 1SM -SN OVC008
     FM301500 27004KT P6SM OVC015=



000
FTUS41 KBOX 291514 AAA
TAFBOS
TAF AMD
KBOS 291514Z 2915/3018 30004KT P6SM FEW250
     FM292000 14004KT P6SM FEW200
     FM300300 17006KT P6SM BKN100
     FM300600 16008KT P6SM OVC020
     FM300700 16008KT P6SM -SN OVC015
     FM300900 15008KT 2SM -SN OVC010
     FM301400 18006KT 1SM -SN OVC003
     FM301700 26006KT 1SM -SN OVC003=



000
FTUS41 KBOX 291514 AAA
TAFBOS
TAF AMD
KBOS 291514Z 2915/3018 30004KT P6SM FEW250
     FM292000 14004KT P6SM FEW200
     FM300300 17006KT P6SM BKN100
     FM300600 16008KT P6SM OVC020
     FM300700 16008KT P6SM -SN OVC015
     FM300900 15008KT 2SM -SN OVC010
     FM301400 18006KT 1SM -SN OVC003
     FM301700 26006KT 1SM -SN OVC003=



000
FTUS41 KBOX 291137
TAFORH
TAF
KORH 291137Z 2912/3012 VRB03KT P6SM SKC
     FM291800 19005KT P6SM FEW200
     FM292300 19006KT P6SM BKN110
     FM300500 19007KT 3SM -SN OVC040
     FM300700 19007KT 2SM -SN OVC010
     FM300900 19006KT 1SM -SN OVC010
     FM301100 21005KT 2SM -SN OVC003=



000
FTUS41 KBOX 291137
TAFBDL
TAF
KBDL 291137Z 2912/3018 VRB03KT P6SM SKC
     FM292200 16005KT P6SM BKN110
     FM300300 16004KT P6SM OVC015
     FM300400 16004KT 3SM -SN OVC010
     FM300700 18004KT 2SM -SN OVC010
     FM301300 26004KT 1SM -SN OVC008
     FM301500 27004KT P6SM OVC015=



000
FTUS41 KBOX 291137
TAFPVD
TAF
KPVD 291137Z 2912/3012 VRB03KT P6SM SKC
     FM291800 12004KT P6SM SKC
     FM300100 VRB03KT P6SM BKN100
     FM300400 16005KT P6SM OVC015
     FM300600 16005KT P6SM -SN OVC015=



000
FTUS41 KBOX 291137
TAFBOS
TAF
KBOS 291137Z 2912/3018 32004KT P6SM SKC
     FM292000 14004KT P6SM FEW200
     FM300300 17006KT P6SM BKN100
     FM300600 16008KT P6SM OVC020
     FM300700 16008KT P6SM -SN OVC015
     FM300900 15008KT 2SM -SN OVC010
     FM301400 18006KT 1SM -SN OVC003
     FM301700 26006KT 1SM -SN OVC003=



000
FTUS41 KBOX 291137
TAFBAF
TAF
KBAF 291137Z 2912/3012 00000KT P6SM SKC
     FM292200 VRB03KT P6SM BKN100
     FM300300 16004KT P6SM OVC010
     FM300400 VRB03KT 3SM -SN OVC010
     FM300500 VRB03KT 1SM -SN OVC010
     FM301000 VRB03KT 1SM -SN OVC003=



000
FTUS41 KBOX 291137
TAFACK
TAF
KACK 291137Z 2912/3012 36007KT P6SM SKC
     FM291900 04005KT P6SM FEW250
     FM300000 15004KT P6SM FEW150
     FM300500 16009KT P6SM BKN100
     FM300800 16010KT P6SM OVC025
     FM301000 16010G18KT P6SM -RA OVC015=



000
FTUS41 KBOX 291137
TAFBDL
TAF
KBDL 291137Z 2912/3018 VRB03KT P6SM SKC
     FM292200 16005KT P6SM BKN110
     FM300300 16004KT P6SM OVC015
     FM300400 16004KT 3SM -SN OVC010
     FM300700 18004KT 2SM -SN OVC010
     FM301300 26004KT 1SM -SN OVC008
     FM301500 27004KT P6SM OVC015=



000
FTUS41 KBOX 291137
TAFPVD
TAF
KPVD 291137Z 2912/3012 VRB03KT P6SM SKC
     FM291800 12004KT P6SM SKC
     FM300100 VRB03KT P6SM BKN100
     FM300400 16005KT P6SM OVC015
     FM300600 16005KT P6SM -SN OVC015=



000
FTUS41 KBOX 291137
TAFBAF
TAF
KBAF 291137Z 2912/3012 00000KT P6SM SKC
     FM292200 VRB03KT P6SM BKN100
     FM300300 16004KT P6SM OVC010
     FM300400 VRB03KT 3SM -SN OVC010
     FM300500 VRB03KT 1SM -SN OVC010
     FM301000 VRB03KT 1SM -SN OVC003=



000
FTUS41 KBOX 291137
TAFBOS
TAF
KBOS 291137Z 2912/3018 32004KT P6SM SKC
     FM292000 14004KT P6SM FEW200
     FM300300 17006KT P6SM BKN100
     FM300600 16008KT P6SM OVC020
     FM300700 16008KT P6SM -SN OVC015
     FM300900 15008KT 2SM -SN OVC010
     FM301400 18006KT 1SM -SN OVC003
     FM301700 26006KT 1SM -SN OVC003=



000
FTUS41 KBOX 291137
TAFACK
TAF
KACK 291137Z 2912/3012 36007KT P6SM SKC
     FM291900 04005KT P6SM FEW250
     FM300000 15004KT P6SM FEW150
     FM300500 16009KT P6SM BKN100
     FM300800 16010KT P6SM OVC025
     FM301000 16010G18KT P6SM -RA OVC015=



000
FTUS41 KBOX 291137
TAFORH
TAF
KORH 291137Z 2912/3012 VRB03KT P6SM SKC
     FM291800 19005KT P6SM FEW200
     FM292300 19006KT P6SM BKN110
     FM300500 19007KT 3SM -SN OVC040
     FM300700 19007KT 2SM -SN OVC010
     FM300900 19006KT 1SM -SN OVC010
     FM301100 21005KT 2SM -SN OVC003=



000
FTUS41 KBOX 290953 AAA
TAFPVD
TAF AMD
KPVD 290953Z 2910/3006 00000KT P6SM SKC
     FM291500 VRB03KT P6SM SKC
     FM300100 VRB03KT P6SM BKN110
     FM300400 16005KT P6SM OVC015=



000
FTUS41 KBOX 290953 AAA
TAFBOS
TAF AMD
KBOS 290953Z 2910/3012 VRB03KT P6SM SKC
     FM291400 VRB03KT P6SM SKC
     FM300300 17006KT P6SM BKN100
     FM300600 16008KT P6SM OVC020
     FM300900 15008KT 2SM -SN OVC010=



000
FTUS41 KBOX 290953 AAA
TAFBDL
TAF AMD
KBDL 290953Z 2910/3012 32004KT P6SM SKC
     FM291900 15004KT P6SM SCT150
     FM292200 16005KT P6SM BKN110
     FM300300 16004KT P6SM OVC015
     FM300400 16004KT 3SM -SN OVC010
     FM300700 18004KT 2SM -SN OVC010=



000
FTUS41 KBOX 290953 AAA
TAFBDL
TAF AMD
KBDL 290953Z 2910/3012 32004KT P6SM SKC
     FM291900 15004KT P6SM SCT150
     FM292200 16005KT P6SM BKN110
     FM300300 16004KT P6SM OVC015
     FM300400 16004KT 3SM -SN OVC010
     FM300700 18004KT 2SM -SN OVC010=



000
FTUS41 KBOX 290953 AAA
TAFBOS
TAF AMD
KBOS 290953Z 2910/3012 VRB03KT P6SM SKC
     FM291400 VRB03KT P6SM SKC
     FM300300 17006KT P6SM BKN100
     FM300600 16008KT P6SM OVC020
     FM300900 15008KT 2SM -SN OVC010=



000
FTUS41 KBOX 290953 AAA
TAFPVD
TAF AMD
KPVD 290953Z 2910/3006 00000KT P6SM SKC
     FM291500 VRB03KT P6SM SKC
     FM300100 VRB03KT P6SM BKN110
     FM300400 16005KT P6SM OVC015=



000
FTUS41 KBOX 290533
TAFPVD
TAF
KPVD 290533Z 2906/3006 34006KT P6SM SKC
     FM291500 00000KT P6SM SKC
     FM300100 VRB03KT P6SM BKN110
     FM300400 16005KT P6SM OVC015=



000
FTUS41 KBOX 290533
TAFBOS
TAF
KBOS 290533Z 2906/3012 31007KT P6SM SKC
     FM291400 VRB03KT P6SM SKC
     FM300300 17006KT P6SM BKN100
     FM300600 16008KT P6SM OVC020
     FM300900 15008KT 2SM -SN OVC010=



000
FTUS41 KBOX 290533
TAFACK
TAF
KACK 290533Z 2906/3006 34011KT P6SM BKN025
     FM291100 36009KT P6SM SKC
     FM291900 04005KT P6SM FEW250
     FM300000 15004KT P6SM FEW150
     FM300500 16009KT P6SM BKN100=



000
FTUS41 KBOX 290533
TAFBDL
TAF
KBDL 290533Z 2906/3012 35004KT P6SM SKC
     FM291900 15004KT P6SM SCT150
     FM292200 16005KT P6SM BKN110
     FM300300 16004KT P6SM OVC015
     FM300400 16004KT 3SM -SN OVC010
     FM300700 18004KT 2SM -SN OVC010=



000
FTUS41 KBOX 290533
TAFBAF
TAF
KBAF 290533Z 2906/3006 VRB03KT P6SM SKC
     FM292200 VRB03KT P6SM BKN110
     FM300300 16004KT P6SM OVC010
     FM300400 VRB03KT 3SM -SN OVC010=



000
FTUS41 KBOX 290533
TAFORH
TAF
KORH 290533Z 2906/3006 31007KT P6SM SKC
     FM291400 00000KT P6SM SKC
     FM292300 19005KT P6SM BKN110=



000
FTUS41 KBOX 290533
TAFPVD
TAF
KPVD 290533Z 2906/3006 34006KT P6SM SKC
     FM291500 00000KT P6SM SKC
     FM300100 VRB03KT P6SM BKN110
     FM300400 16005KT P6SM OVC015=



000
FTUS41 KBOX 290533
TAFORH
TAF
KORH 290533Z 2906/3006 31007KT P6SM SKC
     FM291400 00000KT P6SM SKC
     FM292300 19005KT P6SM BKN110=



000
FTUS41 KBOX 290533
TAFBAF
TAF
KBAF 290533Z 2906/3006 VRB03KT P6SM SKC
     FM292200 VRB03KT P6SM BKN110
     FM300300 16004KT P6SM OVC010
     FM300400 VRB03KT 3SM -SN OVC010=



000
FTUS41 KBOX 290533
TAFACK
TAF
KACK 290533Z 2906/3006 34011KT P6SM BKN025
     FM291100 36009KT P6SM SKC
     FM291900 04005KT P6SM FEW250
     FM300000 15004KT P6SM FEW150
     FM300500 16009KT P6SM BKN100=



000
FTUS41 KBOX 290533
TAFBOS
TAF
KBOS 290533Z 2906/3012 31007KT P6SM SKC
     FM291400 VRB03KT P6SM SKC
     FM300300 17006KT P6SM BKN100
     FM300600 16008KT P6SM OVC020
     FM300900 15008KT 2SM -SN OVC010=



000
FTUS41 KBOX 290533
TAFBDL
TAF
KBDL 290533Z 2906/3012 35004KT P6SM SKC
     FM291900 15004KT P6SM SCT150
     FM292200 16005KT P6SM BKN110
     FM300300 16004KT P6SM OVC015
     FM300400 16004KT 3SM -SN OVC010
     FM300700 18004KT 2SM -SN OVC010=



000
FTUS41 KBOX 282351
TAFBAF
TAF
KBAF 282351Z 2900/2924 34007KT P6SM SKC
     FM291000 VRB04KT P6SM SKC
     FM292300 16004KT P6SM BKN100=



000
FTUS41 KBOX 282351
TAFORH
TAF
KORH 282351Z 2900/2924 32011KT P6SM SKC
     FM291100 32007KT P6SM SKC
     FM291500 25004KT P6SM SCT200
     FM292000 18004KT P6SM BKN110=



000
FTUS41 KBOX 282351
TAFACK
TAF
KACK 282351Z 2900/2924 34011KT P6SM BKN035
     FM290400 35009KT P6SM SCT035
     FM291300 02008KT P6SM SCT035
     FM292100 09005KT P6SM SCT200=



000
FTUS41 KBOX 282351
TAFPVD
TAF
KPVD 282351Z 2900/2924 34008KT P6SM SKC
     FM291000 VRB04KT P6SM SKC
     FM292300 16004KT P6SM BKN130=



000
FTUS41 KBOX 282351
TAFBOS
TAF
KBOS 282351Z 2900/3006 33010KT P6SM FEW100
     FM290800 32006KT P6SM SKC
     FM291500 VRB04KT P6SM FEW200
     FM300200 17006KT P6SM BKN120=



000
FTUS41 KBOX 282351
TAFBDL
TAF
KBDL 282351Z 2900/3006 34007KT P6SM SKC
     FM291000 VRB04KT P6SM FEW250
     FM292300 16005KT P6SM BKN100
     FM300300 17005KT P6SM OVC015=



000
FTUS41 KBOX 282351
TAFBAF
TAF
KBAF 282351Z 2900/2924 34007KT P6SM SKC
     FM291000 VRB04KT P6SM SKC
     FM292300 16004KT P6SM BKN100=



000
FTUS41 KBOX 282351
TAFPVD
TAF
KPVD 282351Z 2900/2924 34008KT P6SM SKC
     FM291000 VRB04KT P6SM SKC
     FM292300 16004KT P6SM BKN130=



000
FTUS41 KBOX 282351
TAFORH
TAF
KORH 282351Z 2900/2924 32011KT P6SM SKC
     FM291100 32007KT P6SM SKC
     FM291500 25004KT P6SM SCT200
     FM292000 18004KT P6SM BKN110=



000
FTUS41 KBOX 282351
TAFBDL
TAF
KBDL 282351Z 2900/3006 34007KT P6SM SKC
     FM291000 VRB04KT P6SM FEW250
     FM292300 16005KT P6SM BKN100
     FM300300 17005KT P6SM OVC015=



000
FTUS41 KBOX 282351
TAFACK
TAF
KACK 282351Z 2900/2924 34011KT P6SM BKN035
     FM290400 35009KT P6SM SCT035
     FM291300 02008KT P6SM SCT035
     FM292100 09005KT P6SM SCT200=



000
FTUS41 KBOX 282351
TAFBOS
TAF
KBOS 282351Z 2900/3006 33010KT P6SM FEW100
     FM290800 32006KT P6SM SKC
     FM291500 VRB04KT P6SM FEW200
     FM300200 17006KT P6SM BKN120=



000
FTUS41 KBOX 282207 AAB
TAFACK
TAF AMD
KACK 282207Z 2822/2918 34010KT P6SM SCT027 OVC035
     FM290000 32010KT P6SM SCT035
     FM290700 35010KT P6SM SKC=



000
FTUS41 KBOX 282207 AAB
TAFACK
TAF AMD
KACK 282207Z 2822/2918 34010KT P6SM SCT027 OVC035
     FM290000 32010KT P6SM SCT035
     FM290700 35010KT P6SM SKC=



000
FTUS41 KBOX 282203 AAA
TAFORH
TAF AMD
KORH 282203Z 2822/2918 32010KT P6SM SKC
     FM291400 27004KT P6SM FEW250=



000
FTUS41 KBOX 282203 AAA
TAFORH
TAF AMD
KORH 282203Z 2822/2918 32010KT P6SM SKC
     FM291400 27004KT P6SM FEW250=



000
FTUS41 KBOX 282112 AAA
TAFBAF
TAF AMD
KBAF 282112Z 2821/2918 32013KT P6SM SKC
     FM282300 34008KT P6SM FEW250
     FM290400 34004KT P6SM SKC=



000
FTUS41 KBOX 282112 AAA
TAFBAF
TAF AMD
KBAF 282112Z 2821/2918 32013KT P6SM SKC
     FM282300 34008KT P6SM FEW250
     FM290400 34004KT P6SM SKC=



000
FTUS41 KBOX 282111 AAA
TAFACK
TAF AMD
KACK 282111Z 2821/2918 35010KT P6SM BKN027 OVC035
     FM282300 32012KT P6SM BKN100
     FM290700 35012KT P6SM SKC=



000
FTUS41 KBOX 282111 AAA
TAFACK
TAF AMD
KACK 282111Z 2821/2918 35010KT P6SM BKN027 OVC035
     FM282300 32012KT P6SM BKN100
     FM290700 35012KT P6SM SKC=



000
FTUS41 KBOX 282109 AAA
TAFPVD
TAF AMD
KPVD 282109Z 2821/2918 33010KT P6SM FEW140
     FM290800 34005KT P6SM SKC=



000
FTUS41 KBOX 282109 AAA
TAFPVD
TAF AMD
KPVD 282109Z 2821/2918 33010KT P6SM FEW140
     FM290800 34005KT P6SM SKC=



000
FTUS41 KBOX 282103 AAA
TAFBDL
TAF AMD
KBDL 282103Z 2821/2924 34012KT P6SM FEW140
     FM290800 VRB03KT P6SM SKC
     FM292300 16005KT P6SM BKN150=



000
FTUS41 KBOX 282103 AAA
TAFBDL
TAF AMD
KBDL 282103Z 2821/2924 34012KT P6SM FEW140
     FM290800 VRB03KT P6SM SKC
     FM292300 16005KT P6SM BKN150=



000
FTUS41 KBOX 282102 AAA
TAFBOS
TAF AMD
KBOS 282102Z 2821/2924 31010KT P6SM FEW040 SCT140
     FM290600 32007KT P6SM SKC
     FM291800 00000KT P6SM FEW200=



000
FTUS41 KBOX 282102 AAA
TAFBOS
TAF AMD
KBOS 282102Z 2821/2924 31010KT P6SM FEW040 SCT140
     FM290600 32007KT P6SM SKC
     FM291800 00000KT P6SM FEW200=



000
FTUS41 KBOX 281724
TAFBOS
TAF
KBOS 281724Z 2818/2924 31011G19KT P6SM SCT050 BKN140
     FM282100 33011KT P6SM SCT150
     FM290600 32007KT P6SM SKC
     FM291800 00000KT P6SM FEW200=



000
FTUS41 KBOX 281724
TAFACK
TAF
KACK 281724Z 2818/2918 32015KT P6SM SCT020
     FM282200 32012KT P6SM BKN100
     FM290700 35012KT P6SM SKC=



000
FTUS41 KBOX 281724
TAFORH
TAF
KORH 281724Z 2818/2918 32011G20KT P6SM BKN100
     FM282000 32011G20KT P6SM SCT100
     FM282300 32009KT P6SM SKC
     FM291400 27004KT P6SM FEW250=



000
FTUS41 KBOX 281724
TAFBDL
TAF
KBDL 281724Z 2818/2924 35011G20KT P6SM SCT120
     FM282100 34007KT P6SM SKC
     FM290800 VRB03KT P6SM SKC
     FM292300 16005KT P6SM BKN150=



000
FTUS41 KBOX 281724
TAFBAF
TAF
KBAF 281724Z 2818/2918 35012G20KT P6SM SCT100
     FM282200 34008KT P6SM FEW250
     FM290400 34004KT P6SM SKC=



000
FTUS41 KBOX 281724
TAFPVD
TAF
KPVD 281724Z 2818/2918 33010KT P6SM SCT050 BKN140
     FM282100 34009KT P6SM SCT140
     FM290800 34005KT P6SM SKC=



000
FTUS41 KBOX 281724
TAFORH
TAF
KORH 281724Z 2818/2918 32011G20KT P6SM BKN100
     FM282000 32011G20KT P6SM SCT100
     FM282300 32009KT P6SM SKC
     FM291400 27004KT P6SM FEW250=



000
FTUS41 KBOX 281724
TAFPVD
TAF
KPVD 281724Z 2818/2918 33010KT P6SM SCT050 BKN140
     FM282100 34009KT P6SM SCT140
     FM290800 34005KT P6SM SKC=



000
FTUS41 KBOX 281724
TAFBOS
TAF
KBOS 281724Z 2818/2924 31011G19KT P6SM SCT050 BKN140
     FM282100 33011KT P6SM SCT150
     FM290600 32007KT P6SM SKC
     FM291800 00000KT P6SM FEW200=



000
FTUS41 KBOX 281724
TAFBDL
TAF
KBDL 281724Z 2818/2924 35011G20KT P6SM SCT120
     FM282100 34007KT P6SM SKC
     FM290800 VRB03KT P6SM SKC
     FM292300 16005KT P6SM BKN150=



000
FTUS41 KBOX 281724
TAFBAF
TAF
KBAF 281724Z 2818/2918 35012G20KT P6SM SCT100
     FM282200 34008KT P6SM FEW250
     FM290400 34004KT P6SM SKC=



000
FTUS41 KBOX 281724
TAFACK
TAF
KACK 281724Z 2818/2918 32015KT P6SM SCT020
     FM282200 32012KT P6SM BKN100
     FM290700 35012KT P6SM SKC=



000
FTUS41 KBOX 281139
TAFPVD
TAF
KPVD 281139Z 2812/2912 31008KT P6SM OVC100
     FM282000 34009KT P6SM SCT100
     FM290800 34005KT P6SM SKC=



000
FTUS41 KBOX 281139
TAFPVD
TAF
KPVD 281139Z 2812/2912 31008KT P6SM OVC100
     FM282000 34009KT P6SM SCT100
     FM290800 34005KT P6SM SKC=



000
FTUS41 KBOX 281139
TAFBDL
TAF
KBDL 281139Z 2812/2918 32008KT P6SM SCT050 SCT200
     FM281800 34010G20KT P6SM SCT200
     FM282300 34007KT P6SM FEW200
     FM290600 VRB03KT P6SM SKC=



000
FTUS41 KBOX 281139
TAFBDL
TAF
KBDL 281139Z 2812/2918 32008KT P6SM SCT050 SCT200
     FM281800 34010G20KT P6SM SCT200
     FM282300 34007KT P6SM FEW200
     FM290600 VRB03KT P6SM SKC=



000
FTUS41 KBOX 281139
TAFACK
TAF
KACK 281139Z 2812/2912 32014G22KT P6SM BKN015 OVC040
     FM281400 32016KT P6SM OVC035
     FM281600 32016KT P6SM SCT025 OVC090
     FM281800 33014KT P6SM BKN025
     FM290500 35012KT P6SM SCT025
     FM290800 36011KT P6SM SCT250=



000
FTUS41 KBOX 281139
TAFBAF
TAF
KBAF 281139Z 2812/2912 33010KT P6SM BKN060
     FM281800 34011G20KT P6SM SCT100
     FM282300 34007KT P6SM FEW250
     FM290500 VRB03KT P6SM SKC=



000
FTUS41 KBOX 281139
TAFBOS
TAF
KBOS 281139Z 2812/2918 30013KT P6SM SCT025 OVC040
     FM281400 32012KT P6SM BKN040
     FM281900 33010KT P6SM SCT090
     FM291000 32006KT P6SM SKC
     FM291500 00000KT P6SM FEW200=



000
FTUS41 KBOX 281139
TAFBOS
TAF
KBOS 281139Z 2812/2918 30013KT P6SM SCT025 OVC040
     FM281400 32012KT P6SM BKN040
     FM281900 33010KT P6SM SCT090
     FM291000 32006KT P6SM SKC
     FM291500 00000KT P6SM FEW200=



000
FTUS41 KBOX 281139
TAFACK
TAF
KACK 281139Z 2812/2912 32014G22KT P6SM BKN015 OVC040
     FM281400 32016KT P6SM OVC035
     FM281600 32016KT P6SM SCT025 OVC090
     FM281800 33014KT P6SM BKN025
     FM290500 35012KT P6SM SCT025
     FM290800 36011KT P6SM SCT250=



000
FTUS41 KBOX 281139
TAFORH
TAF
KORH 281139Z 2812/2912 31017G24KT P6SM OVC035
     FM281800 33012G22KT P6SM SCT100
     FM282300 33008KT P6SM FEW200=



000
FTUS41 KBOX 281139
TAFORH
TAF
KORH 281139Z 2812/2912 31017G24KT P6SM OVC035
     FM281800 33012G22KT P6SM SCT100
     FM282300 33008KT P6SM FEW200=



000
FTUS41 KBOX 281139
TAFBAF
TAF
KBAF 281139Z 2812/2912 33010KT P6SM BKN060
     FM281800 34011G20KT P6SM SCT100
     FM282300 34007KT P6SM FEW250
     FM290500 VRB03KT P6SM SKC=



000
FTUS41 KBOX 280911 AAA
TAFPVD
TAF AMD
KPVD 280911Z 2809/2906 32012KT P6SM BKN050
     FM282200 34008KT P6SM BKN110
     FM290000 34008KT P6SM SCT150=



000
FTUS41 KBOX 280911 AAA
TAFPVD
TAF AMD
KPVD 280911Z 2809/2906 32012KT P6SM BKN050
     FM282200 34008KT P6SM BKN110
     FM290000 34008KT P6SM SCT150=



000
FTUS41 KBOX 280911 AAA
TAFPVD
TAF AMD
KPVD 280911Z 2809/2906 32012KT P6SM BKN050
     FM282200 34008KT P6SM BKN110
     FM290000 34008KT P6SM SCT150=



000
FTUS41 KBOX 280911 AAA
TAFPVD
TAF AMD
KPVD 280911Z 2809/2906 32012KT P6SM BKN050
     FM282200 34008KT P6SM BKN110
     FM290000 34008KT P6SM SCT150=



000
FTUS41 KBOX 280910 AAA
TAFBDL
TAF AMD
KBDL 280910Z 2809/2912 33011KT P6SM BKN060
     FM282000 34009KT P6SM SCT150
     FM290200 34005KT P6SM SKC=



000
FTUS41 KBOX 280910 AAA
TAFBDL
TAF AMD
KBDL 280910Z 2809/2912 33011KT P6SM BKN060
     FM282000 34009KT P6SM SCT150
     FM290200 34005KT P6SM SKC=



000
FTUS41 KBOX 280910 AAA
TAFBDL
TAF AMD
KBDL 280910Z 2809/2912 33011KT P6SM BKN060
     FM282000 34009KT P6SM SCT150
     FM290200 34005KT P6SM SKC=



000
FTUS41 KBOX 280910 AAA
TAFBDL
TAF AMD
KBDL 280910Z 2809/2912 33011KT P6SM BKN060
     FM282000 34009KT P6SM SCT150
     FM290200 34005KT P6SM SKC=



000
FTUS41 KBOX 280908 AAA
TAFBOS
TAF AMD
KBOS 280908Z 2809/2912 31012G22KT 2SM -SN OVC045
     FM281000 32012G20KT P6SM OVC040
     FM282100 33010KT P6SM SCT090
     FM291000 32006KT P6SM SKC=



000
FTUS41 KBOX 280908 AAA
TAFBOS
TAF AMD
KBOS 280908Z 2809/2912 31012G22KT 2SM -SN OVC045
     FM281000 32012G20KT P6SM OVC040
     FM282100 33010KT P6SM SCT090
     FM291000 32006KT P6SM SKC=



000
FTUS41 KBOX 280908 AAA
TAFBOS
TAF AMD
KBOS 280908Z 2809/2912 31012G22KT 2SM -SN OVC045
     FM281000 32012G20KT P6SM OVC040
     FM282100 33010KT P6SM SCT090
     FM291000 32006KT P6SM SKC=



    US Dept of Commerce
    National Oceanic and Atmospheric Administration
    National Weather Service
    1325 East West Highway
    Silver Spring, MD 20910
    Page Author: NWS Internet Services Team
Disclaimer
Information Quality
Credits
Glossary
Privacy Policy
Freedom of Information Act (FOIA)
About Us
Career Opportunities